This is the latest recevied weather packets stored in our database for station/object KC8JWT. If no packets are shown the sender has not sent any weather packets the latest 10 day(s).
| Time | Temp. | Humidity | Pressure | Rain* | Wind** | Luminosity | Snow |
|---|---|---|---|---|---|---|---|
| 1777558125 | 12.78° C | 78% | 1014.3 hPa | 0 mm | - | 684 W/m² | - |
| 1777557822 | 11.67° C | 83% | 1014.2 hPa | 0 mm | - | 421 W/m² | - |
| 1777557518 | 11.11° C | 82% | 1014.5 hPa | 0 mm | - | 271 W/m² | - |
| 1777557215 | 10.56° C | 83% | 1014.3 hPa | 0 mm | - | 243 W/m² | - |
| 1777556911 | 10.56° C | 83% | 1014 hPa | 0 mm | - | 201 W/m² | - |
| 1777556606 | 11.11° C | 83% | 1013.9 hPa | 0 mm | - | 121 W/m² | - |
| 1777556302 | 11.67° C | 83% | 1013.9 hPa | 0 mm | - | 204 W/m² | - |
| 1777555998 | 11.11° C | 83% | 1013.9 hPa | 0 mm | - | 396 W/m² | - |
| 1777555698 | 11.67° C | 81% | 1013.9 hPa | 0 mm | - | 186 W/m² | - |
| 1777555395 | 12.22° C | 83% | 1013.9 hPa | 0 mm | - | 454 W/m² | - |
| 1777555091 | 11.11° C | 85% | 1013.8 hPa | 0 mm | - | 439 W/m² | - |
| 1777554789 | 10° C | 87% | 1013.9 hPa | 0 mm | - | 462 W/m² | - |
| 1777554486 | 10° C | 87% | 1014 hPa | 0 mm | - | 156 W/m² | - |
| 1777554182 | 11.11° C | 85% | 1013.5 hPa | 0 mm | - | 107 W/m² | - |
| 1777553879 | 12.22° C | 83% | 1013.7 hPa | 0 mm | - | 159 W/m² | - |
| 1777553575 | 12.78° C | 83% | 1013.8 hPa | 0 mm | - | 306 W/m² | - |
| 1777553270 | 12.22° C | 85% | 1013.6 hPa | 0 mm | - | 329 W/m² | - |
| 1777552968 | 11.67° C | 86% | 1013.5 hPa | 0 mm | - | 277 W/m² | - |
| 1777552662 | 11.11° C | 88% | 1013.4 hPa | 0 mm | - | 100 W/m² | - |
| 1777552359 | 11.11° C | 88% | 1013.4 hPa | 0 mm | - | 261 W/m² | - |
| 1777552056 | 10.56° C | 89% | 1013.5 hPa | 0 mm | - | 206 W/m² | - |
| 1777551753 | 10.56° C | 91% | 1013.5 hPa | 0 mm | - | 174 W/m² | - |
| 1777551450 | 9.44° C | 94% | 1013.3 hPa | 0 mm | - | 161 W/m² | - |
| 1777551146 | 9.44° C | 97% | 1013.1 hPa | 0 mm | - | 131 W/m² | - |
| 1777550844 | 9.44° C | 99% | 1013.1 hPa | 0 mm | - | 130 W/m² | - |
* Rain latest hour (hover to see other rain measurements)
** Current wind speed in m/s (hover to see current wind gust speed)